Time;durP1;ratioP1;P1;durP2;ratioP2;P2;SDS_P1;SDS_P2;PMS_P1;PMS_P2;Temp;Humidity;BMP_temperature;BMP_pressure;BME280_temperature;BME280_humidity;BME280_pressure;Samples;Min_cycle;Max_cycle;Signal;HPM_P1;HPM_P2
2023/04/16 00:00:53;;;;;;;3.85;2.83;;;12.80;56.80;;;;;;5006207;28;20281;-87
2023/04/16 00:03:19;;;;;;;4.68;2.40;;;12.80;56.90;;;;;;4999525;28;20112;-87
2023/04/16 00:05:45;;;;;;;3.97;2.50;;;12.80;57.00;;;;;;5019032;28;20321;-85
2023/04/16 00:08:11;;;;;;;3.75;2.53;;;12.80;57.10;;;;;;5000095;28;20521;-87
2023/04/16 00:10:38;;;;;;;4.10;2.50;;;12.70;57.00;;;;;;5010629;28;20109;-86
2023/04/16 00:13:04;;;;;;;3.03;2.08;;;12.70;57.10;;;;;;4985149;28;20033;-89
2023/04/16 00:15:30;;;;;;;4.57;2.20;;;12.80;57.30;;;;;;5004180;28;20048;-85
2023/04/16 00:17:56;;;;;;;5.53;2.80;;;12.70;57.20;;;;;;5021930;28;20040;-91
2023/04/16 00:20:22;;;;;;;3.25;2.90;;;12.70;57.30;;;;;;4988154;28;20044;-85
2023/04/16 00:22:48;;;;;;;3.35;1.48;;;12.70;57.40;;;;;;5020440;28;20100;-85
2023/04/16 00:25:14;;;;;;;2.13;1.75;;;12.70;57.40;;;;;;4996313;28;20117;-87
2023/04/16 00:27:40;;;;;;;4.57;1.73;;;12.60;57.30;;;;;;5016267;28;20678;-86
2023/04/16 00:30:06;;;;;;;3.08;2.05;;;12.70;57.60;;;;;;4999924;28;20030;-86
2023/04/16 00:32:32;;;;;;;4.65;2.67;;;12.60;57.50;;;;;;4981771;28;20057;-85
2023/04/16 00:34:58;;;;;;;3.95;2.10;;;12.60;57.50;;;;;;4994799;28;20116;-85
2023/04/16 00:37:24;;;;;;;3.17;1.52;;;12.60;57.60;;;;;;4988096;28;20578;-85
2023/04/16 00:39:50;;;;;;;3.45;2.08;;;12.60;57.70;;;;;;5020206;28;20059;-86
2023/04/16 00:42:16;;;;;;;4.13;1.98;;;12.60;57.80;;;;;;4994465;28;20454;-85
2023/04/16 00:44:42;;;;;;;3.70;2.22;;;12.50;57.60;;;;;;5018364;28;20317;-86
2023/04/16 00:47:09;;;;;;;4.15;2.00;;;12.60;57.90;;;;;;5003551;28;20103;-85
2023/04/16 00:49:35;;;;;;;3.88;1.85;;;12.60;57.90;;;;;;5009976;28;20418;-85
2023/04/16 00:52:02;;;;;;;4.00;2.05;;;12.50;57.80;;;;;;4999683;28;20022;-84
2023/04/16 00:54:29;;;;;;;5.00;1.80;;;12.50;57.80;;;;;;5008291;28;20108;-83
2023/04/16 00:56:55;;;;;;;2.90;1.67;;;12.50;57.90;;;;;;5016817;28;20026;-83
2023/04/16 00:59:21;;;;;;;2.88;1.83;;;12.50;58.00;;;;;;5007211;28;20280;-84
2023/04/16 01:01:47;;;;;;;4.53;2.55;;;12.50;58.00;;;;;;5017493;28;20405;-84
2023/04/16 01:04:13;;;;;;;3.47;1.75;;;12.50;58.10;;;;;;5008989;28;20088;-84
2023/04/16 01:06:41;;;;;;;3.90;1.80;;;12.40;58.00;;;;;;5005696;28;20041;-84
2023/04/16 01:09:10;;;;;;;4.90;1.95;;;12.40;58.00;;;;;;5015760;28;20030;-84
2023/04/16 01:11:36;;;;;;;4.32;2.00;;;12.40;58.10;;;;;;5002426;28;20045;-84
2023/04/16 01:14:03;;;;;;;3.00;1.90;;;12.40;58.20;;;;;;5007914;28;20033;-85
2023/04/16 01:16:29;;;;;;;3.72;2.20;;;12.40;58.30;;;;;;5006167;28;20040;-85
2023/04/16 01:18:55;;;;;;;4.85;2.20;;;12.40;58.30;;;;;;5015714;28;20041;-84
2023/04/16 01:21:21;;;;;;;4.90;1.98;;;12.40;58.30;;;;;;5015360;28;20029;-84
2023/04/16 01:23:47;;;;;;;4.25;2.58;;;12.40;58.40;;;;;;5014102;28;20022;-86
2023/04/16 01:26:13;;;;;;;4.10;1.92;;;12.40;58.50;;;;;;5023183;28;20044;-87
2023/04/16 01:28:41;;;;;;;4.40;2.40;;;12.40;58.50;;;;;;5023123;28;20124;-83
2023/04/16 01:31:07;;;;;;;4.65;2.00;;;12.40;59.10;;;;;;5007170;28;20136;-84
2023/04/16 01:33:41;;;;;;;4.05;2.58;;;12.40;58.60;;;;;;5002560;28;20033;-85
2023/04/16 01:36:09;;;;;;;4.32;1.92;;;12.40;58.60;;;;;;5004368;28;20060;-84
2023/04/16 01:38:35;;;;;;;2.72;1.70;;;12.30;58.50;;;;;;5000836;28;20076;-85
2023/04/16 01:41:01;;;;;;;4.78;2.00;;;12.40;58.70;;;;;;4993719;28;20084;-85
2023/04/16 01:43:27;;;;;;;5.07;1.50;;;12.30;58.60;;;;;;5009423;28;20037;-84
2023/04/16 01:46:11;;;;;;;3.33;1.48;;;12.30;58.60;;;;;;5024183;28;20060;-82
2023/04/16 01:48:37;;;;;;;2.17;1.48;;;12.30;58.70;;;;;;5027342;28;20072;-89
2023/04/16 01:51:03;;;;;;;5.53;2.03;;;12.30;58.70;;;;;;5020652;28;20531;-86
2023/04/16 01:53:29;;;;;;;4.28;1.90;;;12.30;58.70;;;;;;5001336;28;20086;-85
2023/04/16 01:55:55;;;;;;;4.25;2.35;;;12.30;58.80;;;;;;4996183;28;20088;-85
2023/04/16 01:58:21;;;;;;;4.53;1.80;;;12.30;58.80;;;;;;5009932;28;20075;-85
2023/04/16 02:00:48;;;;;;;4.63;3.05;;;12.30;58.90;;;;;;5027124;28;20390;-85
2023/04/16 02:03:16;;;;;;;3.47;1.73;;;12.20;58.80;;;;;;5024435;28;20036;-85
2023/04/16 02:05:42;;;;;;;4.03;1.50;;;12.30;59.00;;;;;;5009890;28;20108;-85
2023/04/16 02:08:08;;;;;;;6.60;2.10;;;12.30;59.10;;;;;;5025974;28;20128;-85
2023/04/16 02:10:34;;;;;;;4.32;1.40;;;12.20;58.90;;;;;;5004713;28;20524;-85
2023/04/16 02:13:02;;;;;;;2.10;1.63;;;12.20;59.00;;;;;;5000662;28;20037;-85
2023/04/16 02:15:27;;;;;;;3.88;1.73;;;12.30;59.20;;;;;;4994312;28;20057;-85
2023/04/16 02:17:55;;;;;;;3.63;1.80;;;12.20;59.10;;;;;;5007435;28;20075;-85
2023/04/16 02:20:22;;;;;;;2.88;2.25;;;12.20;59.20;;;;;;4993661;28;20430;-87
2023/04/16 02:22:55;;;;;;;2.70;1.85;;;12.20;59.20;;;;;;4998990;28;20049;-87
2023/04/16 02:25:23;;;;;;;3.38;1.92;;;12.20;59.20;;;;;;5000271;28;20041;-88
2023/04/16 02:27:50;;;;;;;4.60;1.90;;;12.20;59.30;;;;;;5007668;28;20040;-87
2023/04/16 02:30:37;;;;;;;5.70;1.65;;;12.20;59.30;;;;;;5022481;28;20047;-86
2023/04/16 02:33:06;;;;;;;2.50;1.90;;;12.20;59.30;;;;;;4985768;28;20113;-85
2023/04/16 02:35:36;;;;;;;3.47;1.77;;;12.20;59.40;;;;;;5000485;28;20041;-85
2023/04/16 02:38:03;;;;;;;3.05;1.63;;;12.20;59.40;;;;;;5027355;28;20128;-85
2023/04/16 02:40:30;;;;;;;4.13;1.80;;;12.20;59.50;;;;;;5006383;28;20032;-84
2023/04/16 02:42:56;;;;;;;3.65;2.10;;;12.20;59.50;;;;;;5008134;28;20235;-85
2023/04/16 02:45:23;;;;;;;2.63;1.58;;;12.10;59.40;;;;;;5026392;28;20029;-86
2023/04/16 02:47:49;;;;;;;4.90;1.65;;;12.20;59.60;;;;;;5026790;28;20037;-86
2023/04/16 02:50:16;;;;;;;4.35;2.80;;;12.20;59.70;;;;;;5020543;28;20397;-86
2023/04/16 02:52:42;;;;;;;4.32;2.20;;;12.10;59.60;;;;;;5006656;28;20029;-86
2023/04/16 02:55:09;;;;;;;3.75;1.88;;;12.10;59.60;;;;;;5021740;28;20407;-86
2023/04/16 02:57:35;;;;;;;2.08;1.48;;;12.10;59.70;;;;;;5019412;28;20094;-84
2023/04/16 03:00:03;;;;;;;3.22;1.52;;;12.10;59.70;;;;;;5016462;28;20033;-85
2023/04/16 03:02:30;;;;;;;4.30;2.58;;;12.10;59.80;;;;;;5008978;28;20029;-87
2023/04/16 03:04:56;;;;;;;4.80;2.40;;;12.10;59.80;;;;;;5009009;28;20034;-87
2023/04/16 03:07:22;;;;;;;1.80;1.30;;;12.10;59.90;;;;;;5024533;28;20131;-88
2023/04/16 03:09:47;;;;;;;2.08;1.67;;;12.10;60.00;;;;;;5007548;28;20022;-90
2023/04/16 03:12:13;;;;;;;2.55;1.52;;;12.10;60.00;;;;;;5018533;28;20048;-85
2023/04/16 03:14:39;;;;;;;3.85;1.48;;;12.10;60.00;;;;;;5016999;28;20038;-85
2023/04/16 03:17:05;;;;;;;2.97;1.70;;;12.10;60.10;;;;;;5009085;28;20123;-85
2023/04/16 03:19:31;;;;;;;3.47;1.73;;;12.10;60.10;;;;;;5014566;28;20049;-85
2023/04/16 03:21:57;;;;;;;2.72;1.65;;;12.10;60.70;;;;;;5026868;28;20067;-84
2023/04/16 03:24:23;;;;;;;2.50;1.40;;;12.10;60.20;;;;;;5008482;28;20520;-86
2023/04/16 03:26:49;;;;;;;4.13;1.73;;;12.10;60.70;;;;;;5023087;28;20037;-87
2023/04/16 03:29:18;;;;;;;3.13;1.85;;;12.00;60.00;;;;;;5008752;28;20044;-87
2023/04/16 03:31:44;;;;;;;2.58;1.30;;;12.10;60.20;;;;;;4987945;28;20022;-87
2023/04/16 03:34:10;;;;;;;1.42;1.27;;;12.10;60.20;;;;;;5022102;28;20445;-87
2023/04/16 03:36:38;;;;;;;8.48;2.35;;;12.10;60.30;;;;;;5023610;28;20496;-87
2023/04/16 03:39:04;;;;;;;2.97;1.52;;;12.00;60.10;;;;;;5004842;28;20068;-86
2023/04/16 03:41:30;;;;;;;2.20;1.23;;;12.00;60.20;;;;;;5026677;28;20587;-87
2023/04/16 03:43:56;;;;;;;2.58;1.20;;;12.00;60.20;;;;;;5005568;28;20561;-88
2023/04/16 03:46:22;;;;;;;2.33;1.60;;;12.00;60.30;;;;;;5026094;28;20041;-86
2023/04/16 03:48:48;;;;;;;3.75;1.60;;;12.00;60.30;;;;;;5016421;28;20509;-87
2023/04/16 03:51:15;;;;;;;1.45;1.13;;;12.00;60.30;;;;;;5017286;28;20041;-87
2023/04/16 03:53:41;;;;;;;3.17;1.50;;;12.00;60.40;;;;;;5020152;28;20041;-85
2023/04/16 03:56:07;;;;;;;3.42;1.38;;;11.90;60.20;;;;;;5017207;28;20497;-84
2023/04/16 03:58:33;;;;;;;4.78;1.88;;;12.00;60.50;;;;;;5014240;28;20030;-85
2023/04/16 04:00:59;;;;;;;3.42;1.45;;;12.00;60.50;;;;;;5014122;28;20037;-86
2023/04/16 04:03:25;;;;;;;3.90;1.40;;;11.90;60.40;;;;;;5022551;28;20275;-85
2023/04/16 04:05:53;;;;;;;3.33;1.30;;;11.90;60.40;;;;;;5041457;28;20120;-86
2023/04/16 04:08:29;;;;;;;6.63;1.50;;;11.90;60.50;;;;;;5019266;28;20034;-90
2023/04/16 04:10:55;;;;;;;2.65;1.27;;;11.90;60.50;;;;;;5022158;28;20041;-88
2023/04/16 04:13:23;;;;;;;3.90;1.38;;;11.90;60.60;;;;;;5022634;28;20029;-88
2023/04/16 04:15:50;;;;;;;3.17;1.80;;;11.90;60.70;;;;;;5024593;28;20072;-87
2023/04/16 04:18:17;;;;;;;2.22;1.30;;;11.90;60.70;;;;;;5035031;28;20065;-88
2023/04/16 04:20:43;;;;;;;4.75;1.88;;;11.90;60.70;;;;;;5025378;28;20537;-87
2023/04/16 04:23:12;;;;;;;2.08;1.40;;;11.90;60.80;;;;;;5009858;28;20345;-86
2023/04/16 04:25:38;;;;;;;2.60;1.20;;;11.90;60.80;;;;;;5025042;28;20029;-88
2023/04/16 04:28:04;;;;;;;3.03;1.65;;;11.90;60.80;;;;;;5024750;28;20092;-88
2023/04/16 04:30:30;;;;;;;2.42;1.42;;;11.90;60.90;;;;;;5023361;28;20120;-87
2023/04/16 04:32:57;;;;;;;3.03;1.40;;;11.90;60.90;;;;;;5025724;28;20085;-86
2023/04/16 04:35:23;;;;;;;2.13;1.45;;;11.90;61.00;;;;;;5021390;28;20038;-85
2023/04/16 04:37:49;;;;;;;2.40;1.60;;;11.90;61.00;;;;;;5019643;28;20025;-86
2023/04/16 04:40:18;;;;;;;2.53;1.38;;;11.90;61.00;;;;;;5027765;28;20030;-87
2023/04/16 04:42:45;;;;;;;2.75;1.40;;;11.90;61.10;;;;;;5023109;28;20038;-87
2023/04/16 04:45:11;;;;;;;1.92;1.05;;;11.90;61.10;;;;;;5038278;28;20128;-87
2023/04/16 04:47:37;;;;;;;2.80;1.33;;;11.80;61.00;;;;;;5020440;28;20517;-86
2023/04/16 04:50:03;;;;;;;2.92;1.08;;;11.80;61.00;;;;;;5019019;28;20041;-88
2023/04/16 04:52:31;;;;;;;3.20;1.42;;;11.80;61.10;;;;;;5004281;28;20255;-85
2023/04/16 04:54:57;;;;;;;2.08;1.27;;;11.80;61.20;;;;;;5017756;28;20041;-90
2023/04/16 04:57:23;;;;;;;2.00;0.93;;;11.80;61.20;;;;;;5023089;28;20029;-90
2023/04/16 04:59:52;;;;;;;3.42;1.27;;;11.80;61.30;;;;;;5025184;28;20037;-89
2023/04/16 05:02:19;;;;;;;1.83;1.20;;;11.80;61.30;;;;;;5002303;28;20029;-88
2023/04/16 05:04:45;;;;;;;1.90;1.30;;;11.80;61.40;;;;;;5023028;28;20021;-92
2023/04/16 05:07:10;;;;;;;1.77;1.17;;;11.80;61.40;;;;;;5013830;28;20030;-92
2023/04/16 05:09:36;;;;;;;2.97;1.30;;;11.80;61.50;;;;;;5018149;28;20112;-91
2023/04/16 05:12:03;;;;;;;2.70;1.15;;;11.80;61.50;;;;;;5006800;28;20362;-83
2023/04/16 05:14:29;;;;;;;2.25;1.40;;;11.80;61.60;;;;;;5026160;28;20104;-83
2023/04/16 05:16:55;;;;;;;3.80;1.23;;;11.80;61.60;;;;;;5025153;28;20125;-87
2023/04/16 05:19:21;;;;;;;2.22;1.08;;;11.80;61.60;;;;;;5023257;28;20112;-84
2023/04/16 05:21:47;;;;;;;1.92;1.00;;;11.80;61.70;;;;;;5013945;28;20105;-88
2023/04/16 05:24:12;;;;;;;2.22;1.20;;;11.80;61.70;;;;;;5042712;28;20037;-89
2023/04/16 05:26:38;;;;;;;3.00;1.10;;;11.80;61.70;;;;;;5044756;28;20014;-86
2023/04/16 05:29:04;;;;;;;3.05;1.23;;;11.70;61.50;;;;;;5026378;28;20091;-88
2023/04/16 05:31:30;;;;;;;2.03;1.35;;;11.80;61.80;;;;;;5043318;28;20100;-89
2023/04/16 05:33:58;;;;;;;1.67;1.10;;;11.80;61.80;;;;;;5020071;28;20099;-83
2023/04/16 05:36:24;;;;;;;1.58;1.00;;;11.80;61.90;;;;;;5017059;28;20037;-85
2023/04/16 05:38:50;;;;;;;3.55;2.30;;;11.80;62.00;;;;;;5042782;28;20190;-81
2023/04/16 05:41:16;;;;;;;2.67;1.20;;;11.80;62.00;;;;;;5018488;28;20139;-85
2023/04/16 05:43:42;;;;;;;3.72;1.10;;;11.80;62.20;;;;;;5016940;28;20433;-83
2023/04/16 05:46:08;;;;;;;4.97;2.00;;;11.80;62.20;;;;;;5018120;28;20029;-84
2023/04/16 05:48:34;;;;;;;1.92;0.93;;;11.80;62.30;;;;;;5017673;28;20045;-85
2023/04/16 05:51:01;;;;;;;3.55;1.17;;;11.80;62.40;;;;;;5001670;28;20485;-86
2023/04/16 05:53:27;;;;;;;3.33;1.27;;;11.90;62.60;;;;;;5017656;28;20519;-82
2023/04/16 05:55:53;;;;;;;2.70;1.30;;;11.90;63.30;;;;;;5022482;28;20521;-83
2023/04/16 05:58:19;;;;;;;2.10;1.02;;;11.90;62.80;;;;;;4995385;28;20033;-85
2023/04/16 06:00:45;;;;;;;2.58;1.30;;;11.90;62.80;;;;;;5004191;28;20037;-78
2023/04/16 06:03:10;;;;;;;1.70;0.90;;;12.00;63.00;;;;;;5009701;28;20120;-83
2023/04/16 06:05:36;;;;;;;3.08;1.17;;;12.10;63.30;;;;;;5028511;28;20030;-86
2023/04/16 06:08:02;;;;;;;3.65;1.20;;;12.00;63.20;;;;;;5019489;28;20401;-84
2023/04/16 06:10:28;;;;;;;11.15;3.05;;;12.10;63.50;;;;;;5023783;28;20033;-84
2023/04/16 06:12:55;;;;;;;14.60;2.10;;;12.10;63.50;;;;;;5011649;28;20113;-86
2023/04/16 06:15:20;;;;;;;6.72;1.98;;;12.20;63.70;;;;;;5020904;28;20048;-86
2023/04/16 06:17:46;;;;;;;4.72;1.45;;;12.30;63.90;;;;;;5012081;28;20425;-82
2023/04/16 06:20:12;;;;;;;6.50;1.70;;;12.30;63.90;;;;;;5005661;28;20038;-84
2023/04/16 06:22:41;;;;;;;7.93;1.80;;;12.40;64.10;;;;;;5016691;28;20033;-86
2023/04/16 06:25:07;;;;;;;3.97;1.67;;;12.40;64.10;;;;;;5008019;28;20215;-81
2023/04/16 06:27:33;;;;;;;9.23;2.22;;;12.50;64.30;;;;;;5002839;28;20037;-86
2023/04/16 06:29:59;;;;;;;3.55;1.77;;;12.60;64.50;;;;;;5015269;28;20049;-91
2023/04/16 06:32:25;;;;;;;7.53;1.55;;;12.70;64.70;;;;;;4986896;28;20032;-93
2023/04/16 06:34:51;;;;;;;4.22;1.73;;;12.70;64.70;;;;;;5005357;28;20124;-92
2023/04/16 06:37:17;;;;;;;4.15;1.80;;;12.80;64.90;;;;;;5023553;28;20057;-92
2023/04/16 06:39:43;;;;;;;3.47;1.25;;;12.90;65.00;;;;;;5016949;28;20045;-92
2023/04/16 06:42:09;;;;;;;5.85;1.67;;;12.90;65.00;;;;;;5022098;28;20034;-94
2023/04/16 06:44:35;;;;;;;3.58;1.40;;;13.00;65.10;;;;;;5022678;28;20035;-93
2023/04/16 06:47:01;;;;;;;4.40;2.00;;;13.10;65.20;;;;;;5003706;28;20109;-93
2023/04/16 06:49:26;;;;;;;8.32;2.17;;;13.20;65.30;;;;;;5016120;28;20577;-94
2023/04/16 06:51:52;;;;;;;8.07;1.42;;;13.30;65.30;;;;;;5030060;28;20112;-92
2023/04/16 06:54:19;;;;;;;10.20;2.40;;;13.40;65.40;;;;;;5024302;28;20359;-87
2023/04/16 06:56:44;;;;;;;9.85;2.08;;;13.50;65.40;;;;;;5020766;28;20416;-84
2023/04/16 06:59:10;;;;;;;11.40;2.60;;;13.50;65.30;;;;;;5015560;28;20128;-89
2023/04/16 07:01:36;;;;;;;11.68;1.92;;;13.60;65.40;;;;;;5023305;28;20030;-86
2023/04/16 07:04:03;;;;;;;7.85;1.55;;;13.60;65.30;;;;;;5023774;28;20334;-84
2023/04/16 07:06:28;;;;;;;5.82;1.50;;;13.70;65.30;;;;;;5016286;28;20029;-86
2023/04/16 07:08:54;;;;;;;12.82;3.55;;;13.70;65.10;;;;;;5004131;28;20277;-88
2023/04/16 07:11:21;;;;;;;7.38;1.48;;;13.70;65.10;;;;;;5016919;28;20038;-86
2023/04/16 07:13:47;;;;;;;6.38;1.65;;;13.70;64.90;;;;;;5002600;28;20116;-86
2023/04/16 07:16:13;;;;;;;7.53;3.25;;;13.80;65.00;;;;;;5007355;28;20119;-86
2023/04/16 07:18:39;;;;;;;4.93;1.67;;;13.80;64.80;;;;;;5020320;28;20029;-84
2023/04/16 07:21:05;;;;;;;6.57;2.35;;;13.80;64.70;;;;;;5009832;28;20042;-85
2023/04/16 07:23:31;;;;;;;4.80;1.33;;;13.80;64.60;;;;;;5019719;28;20021;-86
2023/04/16 07:25:57;;;;;;;2.45;1.20;;;13.80;64.60;;;;;;5019736;28;20040;-85
2023/04/16 07:28:24;;;;;;;6.18;1.65;;;13.80;64.30;;;;;;5005798;28;20108;-86
2023/04/16 07:30:50;;;;;;;4.55;1.48;;;13.90;64.40;;;;;;5016080;28;20037;-93
2023/04/16 07:33:15;;;;;;;5.55;2.10;;;13.90;64.30;;;;;;5022559;28;20029;-86
2023/04/16 07:35:41;;;;;;;4.63;1.70;;;13.90;64.20;;;;;;5019772;28;20044;-90
2023/04/16 07:38:07;;;;;;;4.47;1.55;;;14.00;64.20;;;;;;5012119;28;20034;-88
2023/04/16 07:40:33;;;;;;;5.80;1.55;;;14.00;64.10;;;;;;5007062;28;20196;-88
2023/04/16 07:42:59;;;;;;;5.13;1.70;;;14.10;64.10;;;;;;5008009;28;20045;-89
2023/04/16 07:45:26;;;;;;;5.18;1.25;;;14.10;63.90;;;;;;5007881;28;20113;-88
2023/04/16 07:47:51;;;;;;;4.30;1.50;;;14.20;63.80;;;;;;5014315;28;20178;-85
2023/04/16 07:50:18;;;;;;;2.83;1.40;;;14.20;63.60;;;;;;4998521;28;20121;-83
2023/04/16 07:52:45;;;;;;;3.53;1.75;;;14.30;63.70;;;;;;5001504;28;20476;-84
2023/04/16 07:55:10;;;;;;;4.25;1.70;;;14.30;63.50;;;;;;4998622;28;20046;-84
2023/04/16 07:57:36;;;;;;;4.43;1.95;;;14.40;63.50;;;;;;5021285;28;20390;-84
2023/04/16 08:00:03;;;;;;;3.47;1.40;;;14.40;63.30;;;;;;5001613;28;20367;-86
2023/04/16 08:02:39;;;;;;;1.60;1.23;;;14.50;63.30;;;;;;4994687;28;20049;-84
2023/04/16 08:05:05;;;;;;;2.90;2.03;;;14.70;63.40;;;;;;5010526;28;20032;-86
2023/04/16 08:07:31;;;;;;;5.43;2.80;;;14.70;63.20;;;;;;5012891;28;20091;-83
2023/04/16 08:09:57;;;;;;;4.97;1.60;;;14.80;63.00;;;;;;5016174;28;20021;-87
2023/04/16 08:12:23;;;;;;;4.43;1.73;;;14.90;63.00;;;;;;5008426;28;20069;-85
2023/04/16 08:14:49;;;;;;;3.88;2.13;;;15.00;62.90;;;;;;5021215;28;20076;-86
2023/04/16 08:17:15;;;;;;;3.10;1.63;;;15.00;62.60;;;;;;5013400;28;20081;-85
2023/04/16 08:19:43;;;;;;;5.47;2.15;;;15.10;62.60;;;;;;5015519;28;20460;-87
2023/04/16 08:22:12;;;;;;;1.80;1.20;;;15.20;62.60;;;;;;5015387;28;20389;-87
2023/04/16 08:24:39;;;;;;;3.25;1.40;;;15.20;62.30;;;;;;5002883;28;20041;-86
2023/04/16 08:27:05;;;;;;;4.10;1.58;;;15.30;62.40;;;;;;5021203;28;20079;-87
2023/04/16 08:29:31;;;;;;;5.80;2.08;;;15.30;62.20;;;;;;5002118;28;20053;-86
2023/04/16 08:31:58;;;;;;;4.40;1.77;;;15.30;62.10;;;;;;5020279;28;20053;-86
2023/04/16 08:34:24;;;;;;;4.90;1.58;;;15.30;62.00;;;;;;4999921;28;20124;-84
2023/04/16 08:36:50;;;;;;;3.17;1.63;;;15.30;62.00;;;;;;5012613;28;20045;-86
2023/04/16 08:39:16;;;;;;;4.00;1.73;;;15.30;62.10;;;;;;5015270;28;20040;-84
2023/04/16 08:41:45;;;;;;;3.80;1.95;;;15.30;62.10;;;;;;5010769;28;20044;-80
2023/04/16 08:44:18;;;;;;;6.50;1.88;;;15.40;62.30;;;;;;4997256;28;20038;-83
2023/04/16 08:46:45;;;;;;;4.38;1.50;;;15.40;62.30;;;;;;5015985;28;20048;-79
2023/04/16 08:49:19;;;;;;;4.13;1.90;;;15.50;62.40;;;;;;5013604;28;20064;-79
2023/04/16 08:51:52;;;;;;;2.10;1.25;;;15.50;62.30;;;;;;5008132;28;20045;-81
2023/04/16 08:54:51;;;;;;;7.20;1.77;;;15.60;62.40;;;;;;5015556;28;20785;-81
2023/04/16 08:57:19;;;;;;;3.67;1.67;;;15.60;62.30;;;;;;5017967;28;20084;-83
2023/04/16 08:59:48;;;;;;;4.20;1.40;;;15.70;62.30;;;;;;5011268;28;20400;-82
2023/04/16 09:02:14;;;;;;;7.38;2.42;;;15.70;62.20;;;;;;5020797;28;20179;-87
2023/04/16 09:04:41;;;;;;;6.88;2.28;;;15.80;62.40;;;;;;5016665;28;20541;-85
2023/04/16 09:07:08;;;;;;;9.80;1.88;;;15.70;62.10;;;;;;5012058;28;20049;-85
2023/04/16 09:09:34;;;;;;;4.00;1.58;;;15.80;62.20;;;;;;5007798;28;20448;-83
2023/04/16 09:12:00;;;;;;;4.53;1.67;;;15.80;62.10;;;;;;5008691;28;20037;-83
2023/04/16 09:14:26;;;;;;;3.67;1.70;;;15.90;62.20;;;;;;5012642;28;20033;-83
2023/04/16 09:16:54;;;;;;;7.05;2.75;;;15.90;62.10;;;;;;5004876;28;20029;-83
2023/04/16 09:19:20;;;;;;;3.88;1.30;;;16.00;62.10;;;;;;5011062;28;20748;-83
2023/04/16 09:21:46;;;;;;;2.65;1.20;;;16.00;61.80;;;;;;5026804;28;20108;-81
2023/04/16 09:24:13;;;;;;;5.05;1.80;;;16.10;61.80;;;;;;5012792;28;20493;-79
2023/04/16 09:26:42;;;;;;;4.88;1.67;;;16.10;61.60;;;;;;5012594;28;20029;-80
2023/04/16 09:29:08;;;;;;;5.32;2.42;;;16.20;61.70;;;;;;5014426;28;20113;-81
2023/04/16 09:31:34;;;;;;;2.67;1.30;;;16.20;61.50;;;;;;5017393;28;20033;-77
2023/04/16 09:34:05;;;;;;;4.32;2.35;;;16.30;61.50;;;;;;5010746;28;20040;-82
2023/04/16 09:36:32;;;;;;;4.70;2.03;;;16.30;61.30;;;;;;5014493;28;20182;-79
2023/04/16 09:38:58;;;;;;;5.90;2.00;;;16.40;61.20;;;;;;5017963;28;20497;-80
2023/04/16 09:41:27;;;;;;;3.85;2.05;;;16.50;61.10;;;;;;5013052;28;20029;-84
2023/04/16 09:43:56;;;;;;;6.70;1.55;;;16.60;60.90;;;;;;5011604;28;20040;-84
2023/04/16 09:46:42;;;;;;;5.68;2.13;;;16.90;61.00;;;;;;5014473;28;20158;-82
2023/04/16 09:49:12;;;;;;;10.40;2.20;;;17.10;60.80;;;;;;5009373;28;20046;-84
2023/04/16 09:51:40;;;;;;;10.52;2.30;;;17.20;60.50;;;;;;4992768;28;20122;-88
2023/04/16 09:54:07;;;;;;;8.70;2.40;;;17.40;60.40;;;;;;5013008;28;20052;-85
2023/04/16 09:56:37;;;;;;;9.27;2.35;;;17.50;60.80;;;;;;5021712;28;20052;-82
2023/04/16 09:59:03;;;;;;;10.82;2.75;;;17.70;60.30;;;;;;5017742;28;20087;-84
2023/04/16 10:01:30;;;;;;;7.85;1.70;;;17.90;60.20;;;;;;5012045;28;20063;-87
2023/04/16 10:03:57;;;;;;;10.65;1.95;;;18.00;60.00;;;;;;5006023;28;20044;-84
2023/04/16 10:06:26;;;;;;;11.57;1.80;;;18.20;60.00;;;;;;5018990;28;20032;-85
2023/04/16 10:08:55;;;;;;;11.50;2.13;;;18.40;60.00;;;;;;5006930;28;20061;-86
2023/04/16 10:11:22;;;;;;;9.27;2.13;;;18.50;59.60;;;;;;5007670;28;20052;-85
2023/04/16 10:13:48;;;;;;;15.05;2.45;;;18.60;59.50;;;;;;5009244;28;20421;-85
2023/04/16 10:16:14;;;;;;;6.63;1.60;;;18.60;59.10;;;;;;5006136;28;20660;-83
2023/04/16 10:18:42;;;;;;;8.07;2.53;;;18.60;58.90;;;;;;5004673;28;20129;-85
2023/04/16 10:21:11;;;;;;;6.70;1.30;;;18.60;58.80;;;;;;5015842;28;20378;-84
2023/04/16 10:23:41;;;;;;;4.50;1.33;;;18.60;58.70;;;;;;5017189;28;20056;-86
2023/04/16 10:26:08;;;;;;;8.35;1.83;;;18.50;58.40;;;;;;4981335;28;20523;-90
2023/04/16 10:28:35;;;;;;;5.07;1.70;;;18.50;58.40;;;;;;5005570;28;20057;-87
2023/04/16 10:31:03;;;;;;;4.53;1.20;;;18.50;58.40;;;;;;5000051;28;20231;-83
2023/04/16 10:33:33;;;;;;;6.07;1.30;;;18.40;58.10;;;;;;5021179;28;20614;-93
2023/04/16 10:36:23;;;;;;;8.50;2.03;;;18.40;58.10;;;;;;5013907;28;20119;-84
2023/04/16 10:38:51;;;;;;;7.72;1.50;;;18.40;58.30;;;;;;4990258;28;20037;-82
2023/04/16 10:41:19;;;;;;;6.93;1.45;;;18.30;58.20;;;;;;5016056;28;20026;-84
2023/04/16 10:43:47;;;;;;;3.28;1.05;;;18.30;58.10;;;;;;5011529;28;20041;-85
2023/04/16 10:46:18;;;;;;;4.40;2.05;;;18.30;58.00;;;;;;5017117;28;20094;-83
2023/04/16 10:48:45;;;;;;;6.63;1.15;;;18.20;57.90;;;;;;5011967;28;20069;-83
2023/04/16 10:51:28;;;;;;;3.05;1.48;;;18.20;58.30;;;;;;5019726;28;20033;-82
2023/04/16 10:54:15;;;;;;;7.40;2.17;;;18.20;58.20;;;;;;5016213;28;20084;-83
2023/04/16 10:56:44;;;;;;;4.68;1.35;;;18.10;58.10;;;;;;5005488;28;20524;-83
2023/04/16 10:59:10;;;;;;;5.40;1.30;;;18.10;58.20;;;;;;5019756;28;20033;-84
2023/04/16 11:01:41;;;;;;;5.80;1.65;;;18.10;58.20;;;;;;5009822;28;20073;-82
2023/04/16 11:04:19;;;;;;;2.28;1.23;;;18.00;57.80;;;;;;4985849;28;20445;-83
2023/04/16 11:07:05;;;;;;;4.65;1.73;;;18.00;57.70;;;;;;5002679;28;20022;-83
2023/04/16 11:09:53;;;;;;;4.90;1.35;;;18.00;57.60;;;;;;5010333;28;20038;-84
2023/04/16 11:12:21;;;;;;;3.30;1.42;;;18.00;57.50;;;;;;5011802;28;20552;-83
2023/04/16 11:14:48;;;;;;;4.32;1.42;;;18.00;57.60;;;;;;5015799;28;20033;-83
2023/04/16 11:17:14;;;;;;;4.75;1.40;;;17.90;57.20;;;;;;5013059;28;20307;-86
2023/04/16 11:19:42;;;;;;;6.78;2.92;;;18.00;57.40;;;;;;5008465;28;20431;-85
2023/04/16 11:22:11;;;;;;;5.68;2.97;;;18.00;57.60;;;;;;5019878;28;20088;-85
2023/04/16 11:24:39;;;;;;;7.90;3.83;;;18.10;58.20;;;;;;5012921;28;20036;-84
2023/04/16 11:27:05;;;;;;;8.98;5.45;;;18.20;58.70;;;;;;5019494;28;20045;-85
2023/04/16 11:29:31;;;;;;;10.50;5.30;;;18.30;59.10;;;;;;5015780;28;20125;-87
2023/04/16 11:31:57;;;;;;;14.00;5.32;;;18.40;59.40;;;;;;5036304;28;20037;-84
2023/04/16 11:34:23;;;;;;;16.15;6.55;;;18.50;59.80;;;;;;5026756;28;20034;-84
2023/04/16 11:36:51;;;;;;;14.90;8.00;;;18.60;60.10;;;;;;5045804;28;20041;-86
2023/04/16 11:39:19;;;;;;;18.58;8.25;;;18.70;60.60;;;;;;5039392;28;20771;-87
2023/04/16 11:41:51;;;;;;;12.43;6.47;;;18.80;60.90;;;;;;5045082;28;20049;-85
2023/04/16 11:44:26;;;;;;;16.83;7.07;;;18.90;61.50;;;;;;5045175;28;20022;-85
2023/04/16 11:46:53;;;;;;;12.45;6.15;;;18.90;61.60;;;;;;5027837;28;20012;-86
2023/04/16 11:49:29;;;;;;;9.80;5.72;;;19.00;61.80;;;;;;5042709;28;20049;-84
2023/04/16 11:51:56;;;;;;;13.57;6.78;;;19.10;62.20;;;;;;5011874;28;20044;-82
2023/04/16 11:54:23;;;;;;;7.65;4.70;;;19.20;62.20;;;;;;5013018;28;20033;-82
2023/04/16 11:56:51;;;;;;;13.05;5.60;;;19.20;62.10;;;;;;5000353;28;20049;-84
2023/04/16 11:59:18;;;;;;;11.60;5.13;;;19.30;62.10;;;;;;5013694;28;20030;-85
2023/04/16 12:01:49;;;;;;;8.55;5.20;;;19.40;62.10;;;;;;5013711;28;20033;-83
2023/04/16 12:04:16;;;;;;;8.35;4.30;;;19.60;62.30;;;;;;5014131;28;20049;-85
2023/04/16 12:07:08;;;;;;;8.95;4.18;;;19.70;62.10;;;;;;5018988;28;20030;-84
2023/04/16 12:09:36;;;;;;;6.27;3.43;;;19.80;62.00;;;;;;5018963;28;20033;-83
2023/04/16 12:12:02;;;;;;;8.52;4.20;;;20.00;61.90;;;;;;4999202;28;20051;-86
2023/04/16 12:14:29;;;;;;;10.13;5.03;;;20.10;61.60;;;;;;5017648;28;20037;-87
2023/04/16 12:16:55;;;;;;;6.28;4.22;;;20.20;61.50;;;;;;5014922;28;20088;-83
2023/04/16 12:19:21;;;;;;;7.35;3.55;;;20.30;61.40;;;;;;5008811;28;20036;-84
2023/04/16 12:21:49;;;;;;;6.75;3.42;;;20.40;61.40;;;;;;4984019;28;20033;-82
2023/04/16 12:24:21;;;;;;;6.45;4.18;;;20.50;61.40;;;;;;4991262;28;20048;-82
2023/04/16 12:26:54;;;;;;;8.73;3.67;;;20.50;61.30;;;;;;5012062;28;20033;-85
2023/04/16 12:29:23;;;;;;;7.53;3.22;;;20.60;61.40;;;;;;5014130;28;20362;-82
2023/04/16 12:31:50;;;;;;;7.45;3.10;;;20.60;61.20;;;;;;4973131;28;20056;-84
2023/04/16 12:34:17;;;;;;;7.10;2.75;;;20.60;60.90;;;;;;5010212;28;20036;-84
2023/04/16 12:36:44;;;;;;;8.65;2.95;;;20.60;60.90;;;;;;5012324;28;20069;-84
2023/04/16 12:39:11;;;;;;;6.05;2.83;;;20.60;60.80;;;;;;5016464;28;20481;-86
2023/04/16 12:41:39;;;;;;;7.50;2.50;;;20.60;60.80;;;;;;5010137;28;20046;-87
2023/04/16 12:44:15;;;;;;;8.88;2.50;;;20.50;60.70;;;;;;4998354;28;20029;-91
2023/04/16 12:46:45;;;;;;;6.97;2.20;;;20.40;60.40;;;;;;4994012;28;20128;-89